Time;durP1;ratioP1;P1;durP2;ratioP2;P2;SDS_P1;SDS_P2;PMS_P1;PMS_P2;Temp;Humidity;BMP_temperature;BMP_pressure;BME280_temperature;BME280_humidity;BME280_pressure;Samples;Min_cycle;Max_cycle;Signal;HPM_P1;HPM_P2
2022/01/28 00:01:13;;;;;;;;;50.00;39.00;;;;;8.61;91.32;102479.16;5037729;28;45382;-75
2022/01/28 00:03:40;;;;;;;;;48.75;37.25;;;;;8.59;91.79;102470.44;5038250;28;45268;-72
2022/01/28 00:06:07;;;;;;;;;40.25;32.75;;;;;8.59;91.72;102474.78;5039030;28;45656;-65
2022/01/28 00:08:32;;;;;;;;;50.25;40.50;;;;;8.58;91.69;102463.44;5041425;28;46256;-74
2022/01/28 00:10:58;;;;;;;;;40.25;35.00;;;;;8.60;91.90;102474.81;5043148;28;45309;-76
2022/01/28 00:13:33;;;;;;;;;53.75;40.00;;;;;8.61;91.92;102480.91;5042919;28;45379;-73
2022/01/28 00:16:27;;;;;;;;;47.00;37.25;;;;;8.61;91.81;102478.28;5038507;28;45440;-72
2022/01/28 00:40:23;;;;;;;;;44.00;35.50;;;;;8.59;91.24;102512.41;5038001;28;45880;-67
2022/01/28 00:42:48;;;;;;;;;45.75;38.50;;;;;8.58;91.80;102513.28;5021759;28;45427;-72
2022/01/28 00:45:14;;;;;;;;;47.25;35.50;;;;;8.56;91.39;102509.78;5039320;28;45272;-70
2022/01/28 00:47:39;;;;;;;;;43.00;36.00;;;;;8.56;91.70;102508.88;5038481;28;45300;-70
2022/01/28 00:50:05;;;;;;;;;48.00;39.00;;;;;8.52;91.87;102505.41;5039278;28;45824;-76
2022/01/28 00:52:30;;;;;;;;;50.50;39.75;;;;;8.44;91.50;102489.63;5039109;28;45298;-71
2022/01/28 00:54:56;;;;;;;;;45.75;36.00;;;;;8.54;91.45;102514.16;5019906;28;45342;-67
2022/01/28 00:57:21;;;;;;;;;46.00;33.75;;;;;8.48;91.59;102506.22;5037587;28;45558;-70
2022/01/28 00:59:46;;;;;;;;;46.00;36.50;;;;;8.50;91.56;102507.16;5038099;28;46101;-71
2022/01/28 01:02:12;;;;;;;;;48.50;37.50;;;;;8.50;91.67;102517.66;5037205;28;45355;-69
2022/01/28 01:04:37;;;;;;;;;49.25;37.00;;;;;8.45;91.62;102521.97;5037517;28;45304;-73
2022/01/28 01:07:03;;;;;;;;;43.00;32.75;;;;;8.49;91.49;102523.78;5037995;28;45504;-67
2022/01/28 01:09:28;;;;;;;;;50.25;39.25;;;;;8.50;91.36;102522.91;5037753;28;46145;-73
2022/01/28 01:11:54;;;;;;;;;50.25;37.75;;;;;8.47;91.95;102512.34;5038977;28;45390;-71
2022/01/28 01:14:19;;;;;;;;;47.25;37.50;;;;;8.45;91.51;102514.09;5041829;28;45876;-72
2022/01/28 01:19:33;;;;;;;;;49.25;38.25;;;;;8.44;91.80;102526.34;5041167;28;45390;-73
2022/01/28 01:22:00;;;;;;;;;53.25;39.50;;;;;8.46;92.00;102544.69;5041114;28;45376;-73
2022/01/28 01:24:34;;;;;;;;;49.50;37.00;;;;;8.45;91.32;102541.22;5041741;28;45395;-73
2022/01/28 01:27:00;;;;;;;;;49.00;38.00;;;;;8.43;91.43;102536.81;5041809;28;45188;-69
2022/01/28 01:29:26;;;;;;;;;51.00;38.75;;;;;8.45;91.54;102543.84;5044235;28;46163;-74
2022/01/28 01:32:00;;;;;;;;;52.25;39.25;;;;;8.45;91.54;102542.94;5041082;28;45458;-74
2022/01/28 01:34:25;;;;;;;;;51.00;39.00;;;;;8.44;91.53;102543.81;5022311;28;45276;-68
2022/01/28 01:36:51;;;;;;;;;49.75;37.50;;;;;8.41;91.33;102546.44;5041137;28;45529;-70
2022/01/28 01:39:22;;;;;;;;;44.00;36.00;;;;;8.38;91.35;102542.09;5040877;28;46166;-74
2022/01/28 01:41:57;;;;;;;;;45.25;36.00;;;;;8.34;91.53;102541.19;5039128;28;45254;-75
2022/01/28 01:52:37;;;;;;;;;49.25;36.00;;;;;8.15;91.73;102550.81;5039451;28;45347;-67
2022/01/28 01:55:03;;;;;;;;;47.75;37.25;;;;;8.12;91.29;102552.53;5040929;28;45569;-73
2022/01/28 01:57:30;;;;;;;;;47.50;36.75;;;;;8.11;91.26;102566.50;5041323;28;45525;-75
2022/01/28 01:59:55;;;;;;;;;48.00;37.25;;;;;8.08;92.15;102563.88;5039659;28;46066;-72
2022/01/28 02:02:20;;;;;;;;;48.25;36.00;;;;;8.07;91.82;102568.25;5041663;28;45177;-73
2022/01/28 02:04:46;;;;;;;;;46.50;36.50;;;;;8.07;91.97;102567.38;5039738;28;45297;-73
2022/01/28 02:07:15;;;;;;;;;45.75;35.75;;;;;8.05;91.75;102575.25;5039238;28;45361;-63
2022/01/28 02:09:41;;;;;;;;;50.25;38.25;;;;;8.04;92.01;102576.97;5038490;28;46215;-73
2022/01/28 02:12:07;;;;;;;;;48.00;37.75;;;;;8.07;91.75;102580.47;5037379;28;46207;-73
2022/01/28 02:14:32;;;;;;;;;50.00;37.00;;;;;8.10;91.90;102572.63;5040650;28;45293;-74
2022/01/28 02:16:58;;;;;;;;;47.25;36.75;;;;;8.05;91.63;102570.00;5040747;28;45234;-70
2022/01/28 02:19:24;;;;;;;;;40.00;34.00;;;;;8.07;91.34;102585.72;5039365;28;46164;-69
2022/01/28 02:21:51;;;;;;;;;46.75;35.75;;;;;8.01;91.95;102589.22;5021178;28;45539;-74
2022/01/28 02:24:23;;;;;;;;;48.00;35.50;;;;;7.95;92.29;102587.44;5038662;28;45376;-69
2022/01/28 02:26:49;;;;;;;;;46.25;37.75;;;;;7.92;92.01;102584.81;5038826;28;45239;-66
2022/01/28 02:29:25;;;;;;;;;47.50;37.00;;;;;7.87;91.75;102579.53;5038112;28;46104;-68
2022/01/28 02:31:51;;;;;;;;;48.75;36.00;;;;;7.84;92.09;102583.91;5038010;28;45301;-71
2022/01/28 02:34:16;;;;;;;;;45.50;35.50;;;;;7.82;92.52;102580.41;5038055;28;45195;-63
2022/01/28 02:36:42;;;;;;;;;46.50;37.00;;;;;7.78;91.58;102582.13;5038085;28;45610;-64
2022/01/28 02:39:07;;;;;;;;;43.50;35.25;;;;;7.76;92.49;102591.72;5037557;28;45324;-64
2022/01/28 02:41:38;;;;;;;;;39.00;33.50;;;;;7.73;92.64;102597.84;5037933;28;45995;-68
2022/01/28 02:44:55;;;;;;;;;47.25;34.75;;;;;7.72;92.15;102598.72;5037909;28;45350;-66
2022/01/28 02:47:00;;;;;;;;;50.50;36.00;;;;;7.66;92.50;102590.84;5027538;28;45943;-69
2022/01/28 02:49:28;;;;;;;;;43.00;36.50;;;;;7.65;91.91;102593.44;5037665;28;46395;-72
2022/01/28 02:51:57;;;;;;;;;36.25;33.00;;;;;7.64;92.09;102596.91;5042597;28;45397;-71
2022/01/28 02:54:22;;;;;;;;;50.75;37.00;;;;;7.61;91.79;102595.19;5039167;28;45407;-66
2022/01/28 02:56:51;;;;;;;;;38.75;31.25;;;;;7.58;91.83;102597.78;5052233;28;45320;-64
2022/01/28 02:59:16;;;;;;;;;36.00;33.00;;;;;7.55;92.19;102601.25;5044102;28;46096;-65
2022/01/28 03:01:42;;;;;;;;;46.50;34.00;;;;;7.57;92.70;102601.28;5043696;28;45233;-61
2022/01/28 03:04:10;;;;;;;;;45.25;35.50;;;;;7.48;92.64;102586.38;5037550;28;45533;-64
2022/01/28 03:06:35;;;;;;;;;44.00;33.75;;;;;7.51;92.60;102594.25;5037770;28;45472;-73
2022/01/28 03:09:20;;;;;;;;;49.50;37.25;;;;;7.54;92.40;102585.53;5037365;28;47152;-64
2022/01/28 03:11:58;;;;;;;;;47.25;34.50;;;;;7.55;91.83;102584.69;5037085;28;45367;-61
2022/01/28 03:14:48;;;;;;;;;47.50;35.00;;;;;7.58;93.01;102582.06;5037451;28;45335;-59
2022/01/28 03:17:37;;;;;;;;;44.25;35.75;;;;;7.62;91.90;102583.84;5040636;28;45240;-59
2022/01/28 03:20:30;;;;;;;;;45.25;35.25;;;;;7.62;92.33;102564.59;5038346;28;45360;-60
2022/01/28 03:22:47;;;;;;;;;45.50;35.75;;;;;7.68;91.90;102569.88;5041283;28;45339;-59
2022/01/28 03:25:13;;;;;;;;;47.75;37.75;;;;;7.69;91.60;102579.47;5040780;28;45424;-61
2022/01/28 03:30:07;;;;;;;;;48.00;33.00;;;;;7.67;91.20;102583.84;5036610;28;46249;-61
2022/01/28 03:32:33;;;;;;;;;39.00;32.00;;;;;7.67;91.67;102581.22;5036534;28;45430;-58
2022/01/28 03:34:58;;;;;;;;;42.25;34.75;;;;;7.65;91.56;102583.84;5035815;28;45315;-59
2022/01/28 03:37:23;;;;;;;;;40.25;33.75;;;;;7.65;91.72;102582.94;5036827;28;45578;-71
2022/01/28 03:39:49;;;;;;;;;37.75;33.50;;;;;7.68;91.41;102583.84;5018635;28;47590;-74
2022/01/28 03:42:14;;;;;;;;;40.75;34.25;;;;;7.70;91.36;102570.75;5038700;28;45316;-68
2022/01/28 03:44:40;;;;;;;;;45.75;35.75;;;;;7.76;91.17;102581.25;5039689;28;45549;-64
2022/01/28 03:47:05;;;;;;;;;45.50;32.75;;;;;7.82;91.71;102583.88;5042006;28;45435;-71
2022/01/28 03:49:30;;;;;;;;;41.50;32.50;;;;;7.84;91.37;102573.44;5039347;28;45466;-71
2022/01/28 03:51:56;;;;;;;;;43.75;35.50;;;;;7.95;90.64;102594.41;5036991;28;45411;-71
2022/01/28 03:54:21;;;;;;;;;51.25;37.00;;;;;7.96;91.10;102599.69;5038087;28;45485;-73
2022/01/28 03:56:57;;;;;;;;;39.50;34.50;;;;;8.01;90.80;102600.56;5132748;27;45317;-72
2022/01/28 03:59:23;;;;;;;;;40.75;32.25;;;;;8.05;90.13;102604.09;5115003;27;45344;-74
2022/01/28 04:01:49;;;;;;;;;22.50;16.50;;;;;8.07;89.79;102612.81;5114113;27;45325;-72
2022/01/28 04:12:26;;;;;;;;;45.25;35.75;;;;;8.09;89.04;102615.44;5113898;27;45349;-71
2022/01/28 04:17:35;;;;;;;;;46.50;34.00;;;;;8.03;88.52;102622.41;5113650;27;45533;-72
2022/01/28 04:20:01;;;;;;;;;43.50;35.25;;;;;8.01;88.59;102616.28;5113628;27;45317;-71
2022/01/28 04:22:26;;;;;;;;;43.00;33.75;;;;;8.00;89.30;102614.53;5114052;27;45395;-73
2022/01/28 04:24:52;;;;;;;;;45.25;34.00;;;;;7.93;89.08;102602.28;5114769;27;45365;-70
2022/01/28 04:27:18;;;;;;;;;48.00;34.00;;;;;8.00;89.10;102611.06;5114281;27;45481;-70
2022/01/28 04:29:43;;;;;;;;;38.50;33.00;;;;;8.02;89.19;102610.19;5115199;27;45268;-72
2022/01/28 04:32:09;;;;;;;;;45.50;35.50;;;;;7.97;88.17;102606.66;5132235;27;45279;-70
2022/01/28 04:34:35;;;;;;;;;41.25;34.25;;;;;8.01;88.87;102621.53;5118209;27;45740;-65
2022/01/28 04:39:56;;;;;;;;;45.25;34.00;;;;;8.06;88.34;102620.66;5113483;27;45294;-70
2022/01/28 04:47:24;;;;;;;;;38.00;31.75;;;;;8.02;86.71;102617.19;5113124;27;45436;-65
2022/01/28 04:52:52;;;;;;;;;44.50;34.00;;;;;7.95;86.63;102626.75;5112867;27;45211;-62
2022/01/28 05:11:26;;;;;;;;;47.50;39.00;;;;;7.76;89.33;102644.13;5099302;27;45275;-68
2022/01/28 05:27:40;;;;;;;;;46.25;37.50;;;;;7.80;89.59;102658.13;5100557;27;45435;-72
2022/01/28 05:30:06;;;;;;;;;49.50;38.25;;;;;7.85;89.44;102664.28;5099165;27;45882;-70
2022/01/28 05:32:32;;;;;;;;;53.50;42.00;;;;;7.87;89.11;102663.38;5099292;27;45790;-71
2022/01/28 05:34:57;;;;;;;;;53.75;40.25;;;;;7.88;89.82;102669.53;5098881;27;45326;-73
2022/01/28 05:37:23;;;;;;;;;49.50;38.75;;;;;7.92;89.84;102676.53;5098935;27;45251;-72
2022/01/28 05:39:48;;;;;;;;;54.00;41.00;;;;;7.94;89.09;102677.41;5098795;27;52133;-71
2022/01/28 05:42:13;;;;;;;;;51.00;40.75;;;;;7.91;88.89;102677.41;5098821;27;45315;-72
2022/01/28 05:44:38;;;;;;;;;51.25;39.50;;;;;7.96;88.99;102680.06;5100385;27;45307;-71
2022/01/28 05:47:04;;;;;;;;;50.50;38.75;;;;;7.93;89.71;102677.38;5099578;27;45384;-71
2022/01/28 05:49:30;;;;;;;;;50.00;40.00;;;;;7.97;89.34;102687.91;5101983;27;46242;-67
2022/01/28 05:51:56;;;;;;;;;50.00;40.00;;;;;7.99;88.91;102690.56;5102086;27;45294;-73
2022/01/28 05:54:21;;;;;;;;;47.50;37.50;;;;;8.00;88.66;102697.53;5104266;27;45275;-72
2022/01/28 05:56:48;;;;;;;;;48.25;36.50;;;;;7.98;89.18;102708.00;5098761;27;45326;-72
2022/01/28 05:59:13;;;;;;;;;54.50;39.50;;;;;7.96;89.08;102709.75;5097006;27;48307;-74
2022/01/28 06:01:38;;;;;;;;;50.50;41.00;;;;;7.95;89.47;102710.63;5098312;27;45294;-72
2022/01/28 06:04:04;;;;;;;;;46.75;36.50;;;;;7.94;89.52;102714.09;5098403;27;45416;-73
2022/01/28 06:06:30;;;;;;;;;46.00;37.75;;;;;7.92;89.16;102714.94;5098525;27;45556;-74
2022/01/28 06:08:56;;;;;;;;;51.75;39.25;;;;;7.89;89.30;102721.91;5099428;27;46932;-72
2022/01/28 06:11:23;;;;;;;;;53.75;38.50;;;;;7.82;88.80;102711.41;5101367;27;45579;-70
2022/01/28 06:13:49;;;;;;;;;44.00;35.75;;;;;7.85;89.39;102717.53;5099384;27;45366;-72
2022/01/28 06:16:16;;;;;;;;;45.00;34.25;;;;;7.89;89.42;102723.69;5097645;27;45509;-73
2022/01/28 06:18:42;;;;;;;;;50.00;39.00;;;;;7.89;89.27;102721.91;5097422;27;46308;-73
2022/01/28 06:21:08;;;;;;;;;53.75;41.00;;;;;7.93;88.76;102712.34;5098560;27;45303;-75
2022/01/28 06:23:34;;;;;;;;;62.50;45.25;;;;;7.94;89.14;102716.72;5098667;27;45471;-70
2022/01/28 06:26:00;;;;;;;;;61.25;46.50;;;;;8.00;88.90;102724.63;5097089;27;45313;-64
2022/01/28 06:28:25;;;;;;;;;63.50;49.00;;;;;8.00;88.80;102719.38;5099688;27;46465;-59
2022/01/28 06:30:51;;;;;;;;;64.25;45.75;;;;;8.03;87.84;102715.91;5102734;27;45248;-63
2022/01/28 06:33:16;;;;;;;;;60.75;46.00;;;;;7.97;87.91;102705.41;5099899;27;45237;-63
2022/01/28 06:35:43;;;;;;;;;63.25;47.50;;;;;8.04;87.86;102717.66;5098571;27;45567;-66
2022/01/28 06:38:09;;;;;;;;;60.00;48.00;;;;;8.02;87.67;102717.63;5097702;27;46132;-59
2022/01/28 06:40:35;;;;;;;;;58.25;48.25;;;;;7.98;88.17;102702.75;5097510;27;45186;-62
2022/01/28 06:43:00;;;;;;;;;62.75;47.25;;;;;8.03;87.91;102706.28;5097776;27;45998;-64
2022/01/28 06:45:25;;;;;;;;;58.25;46.75;;;;;8.06;87.56;102709.78;5097950;27;45214;-63
2022/01/28 06:47:51;;;;;;;;;61.00;45.25;;;;;8.05;87.09;102716.78;5097403;27;45259;-60
2022/01/28 06:50:16;;;;;;;;;63.00;47.25;;;;;8.07;87.09;102722.03;5097023;27;45324;-59
2022/01/28 06:52:42;;;;;;;;;63.25;47.75;;;;;8.04;86.72;102736.88;5096977;27;45346;-61
2022/01/28 06:55:10;;;;;;;;;58.50;45.25;;;;;8.01;87.31;102730.75;5097537;27;45349;-59
2022/01/28 06:57:36;;;;;;;;;58.25;45.25;;;;;7.98;87.11;102728.97;5097668;27;46458;-66
2022/01/28 07:00:02;;;;;;;;;56.50;45.75;;;;;7.93;86.86;102735.03;5097680;27;45365;-67
2022/01/28 07:02:28;;;;;;;;;57.00;44.50;;;;;7.94;87.57;102740.31;5097103;27;45313;-64
2022/01/28 07:04:53;;;;;;;;;58.75;45.25;;;;;7.93;87.15;102727.19;5097848;27;45401;-64
2022/01/28 07:07:20;;;;;;;;;63.00;47.75;;;;;7.96;86.92;102740.34;5096950;27;45432;-65
2022/01/28 07:09:48;;;;;;;;;64.00;47.50;;;;;7.97;87.73;102734.22;5097186;27;45230;-70
2022/01/28 07:12:14;;;;;;;;;55.50;45.50;;;;;7.95;87.17;102736.81;5097307;27;45363;-71
2022/01/28 07:14:39;;;;;;;;;59.00;46.00;;;;;7.93;87.12;102742.91;5097077;27;45390;-70
2022/01/28 07:17:04;;;;;;;;;62.75;48.00;;;;;7.92;86.89;102735.91;5096571;27;45336;-66
2022/01/28 07:19:30;;;;;;;;;62.75;45.00;;;;;7.67;86.93;102705.22;5096649;27;45305;-67
2022/01/28 07:21:56;;;;;;;;;67.50;48.75;;;;;7.89;86.85;102749.88;5097861;27;45817;-69
2022/01/28 07:24:21;;;;;;;;;64.50;48.75;;;;;7.89;86.86;102749.88;5098143;27;45514;-65
2022/01/28 07:26:46;;;;;;;;;58.75;44.75;;;;;7.92;87.70;102754.25;5097721;27;45986;-73
2022/01/28 07:29:13;;;;;;;;;56.75;45.00;;;;;7.94;86.96;102755.13;5098121;27;45329;-61
2022/01/28 07:31:40;;;;;;;;;60.75;46.25;;;;;7.96;87.11;102756.06;5097895;27;45322;-64
2022/01/28 07:34:06;;;;;;;;;58.75;44.00;;;;;7.98;86.64;102767.44;5098867;27;45235;-62
2022/01/28 07:36:35;;;;;;;;;61.00;48.75;;;;;7.98;86.75;102760.41;5098413;27;46202;-62
2022/01/28 07:39:01;;;;;;;;;62.75;48.25;;;;;7.98;86.78;102765.66;5098471;27;45320;-60
2022/01/28 07:41:26;;;;;;;;;62.25;48.75;;;;;7.98;86.79;102770.91;5097639;27;45289;-64
2022/01/28 07:43:52;;;;;;;;;63.25;50.00;;;;;7.92;86.90;102755.16;5098551;27;45518;-67
2022/01/28 07:46:18;;;;;;;;;54.50;44.25;;;;;7.96;86.95;102762.16;5095578;27;46192;-67
2022/01/28 07:48:43;;;;;;;;;57.50;46.75;;;;;8.00;86.28;102770.94;5098212;27;45468;-64
2022/01/28 07:51:09;;;;;;;;;59.75;47.25;;;;;8.00;86.25;102779.66;5096608;27;45330;-65
2022/01/28 07:53:34;;;;;;;;;64.50;47.25;;;;;8.00;86.68;102779.66;5096348;27;45207;-67
2022/01/28 07:55:59;;;;;;;;;62.50;45.00;;;;;8.01;87.00;102784.03;5095918;27;45697;-67
2022/01/28 07:58:25;;;;;;;;;59.25;46.25;;;;;8.05;86.63;102792.81;5095221;27;45315;-73
2022/01/28 08:00:50;;;;;;;;;59.25;47.00;;;;;8.08;86.89;102791.94;5096102;27;45191;-62
2022/01/28 08:03:16;;;;;;;;;59.25;46.50;;;;;8.07;86.08;102804.16;5096221;27;45290;-68
2022/01/28 08:05:41;;;;;;;;;57.00;45.00;;;;;8.09;86.54;102806.78;5095980;27;45923;-68
2022/01/28 08:08:08;;;;;;;;;57.75;45.50;;;;;8.11;86.04;102808.56;5096003;27;45306;-59
2022/01/28 08:10:35;;;;;;;;;60.75;48.50;;;;;8.15;86.75;102809.44;5096626;27;45416;-70
2022/01/28 08:13:03;;;;;;;;;53.00;44.00;;;;;8.20;86.48;102810.34;5097657;27;45397;-64
2022/01/28 08:15:28;;;;;;;;;58.25;46.50;;;;;8.23;85.92;102809.50;5098555;27;46188;-61
2022/01/28 08:17:54;;;;;;;;;62.25;46.00;;;;;8.25;86.06;102805.16;5095736;27;45276;-59
2022/01/28 08:20:19;;;;;;;;;57.00;45.00;;;;;8.24;86.02;102798.16;5097753;27;45407;-59
2022/01/28 08:22:47;;;;;;;;;61.50;47.50;;;;;8.25;86.32;102803.38;5097505;27;45590;-59
2022/01/28 08:25:13;;;;;;;;;60.75;46.00;;;;;8.28;85.64;102806.03;5095614;27;46400;-74
2022/01/28 08:27:41;;;;;;;;;58.75;45.25;;;;;8.31;86.15;102806.03;5095694;27;45348;-71
2022/01/28 08:30:07;;;;;;;;;57.50;46.00;;;;;8.34;85.81;102813.06;5100310;27;45286;-72
2022/01/28 08:32:33;;;;;;;;;61.25;47.00;;;;;8.41;86.07;102811.31;5095974;27;45380;-74
2022/01/28 08:34:58;;;;;;;;;57.00;46.00;;;;;8.46;85.66;102820.97;5095678;27;46341;-63
2022/01/28 08:37:23;;;;;;;;;53.75;43.75;;;;;8.45;85.25;102823.56;5096711;27;45389;-73
2022/01/28 08:39:49;;;;;;;;;62.75;49.25;;;;;8.52;85.12;102827.16;5096796;27;45231;-68
2022/01/28 08:42:16;;;;;;;;;66.00;49.25;;;;;8.55;85.23;102838.56;5096699;27;45607;-59
2022/01/28 08:44:42;;;;;;;;;62.75;46.25;;;;;8.58;85.49;102838.56;5098888;27;46083;-67
2022/01/28 08:47:07;;;;;;;;;63.25;46.75;;;;;8.63;85.01;102849.06;5099145;27;45277;-73
2022/01/28 08:49:32;;;;;;;;;51.50;40.00;;;;;8.64;84.98;102842.09;5099299;27;45340;-71
2022/01/28 08:51:58;;;;;;;;;64.75;48.75;;;;;8.67;84.67;102850.84;5099742;27;45282;-75
2022/01/28 08:54:24;;;;;;;;;51.75;40.25;;;;;8.61;82.41;102851.69;5099467;27;45986;-69
2022/01/28 08:56:49;;;;;;;;;55.50;38.75;;;;;8.55;82.29;102845.53;5098970;27;45364;-62
2022/01/28 08:59:15;;;;;;;;;50.25;39.00;;;;;8.53;82.78;102860.38;5099490;27;45275;-63
2022/01/28 09:01:40;;;;;;;;;49.00;38.25;;;;;8.45;81.46;102855.94;5101597;27;45674;-61
2022/01/28 09:04:05;;;;;;;;;43.25;36.00;;;;;8.52;81.90;102871.75;5100578;27;45280;-64
2022/01/28 09:06:31;;;;;;;;;51.25;39.25;;;;;8.56;81.91;102871.78;5099198;27;47474;-64
2022/01/28 09:09:00;;;;;;;;;52.75;42.50;;;;;8.62;81.55;102878.78;5098776;27;45446;-58
2022/01/28 09:13:52;;;;;;;;;45.25;36.00;;;;;8.79;80.58;102884.13;5099093;27;45275;-65
2022/01/28 09:16:18;;;;;;;;;44.75;34.25;;;;;8.86;80.59;102882.41;5101395;27;45242;-65
2022/01/28 09:18:43;;;;;;;;;38.75;33.50;;;;;8.86;79.38;102877.16;5099644;27;45249;-62
2022/01/28 09:21:08;;;;;;;;;38.75;30.50;;;;;8.86;80.00;102880.66;5102447;27;45191;-61
2022/01/28 09:23:34;;;;;;;;;53.00;38.50;;;;;8.87;79.69;102873.66;5099454;27;45523;-62
2022/01/28 09:25:59;;;;;;;;;51.75;37.75;;;;;8.87;79.06;102869.28;5101554;27;45353;-67
2022/01/28 09:28:25;;;;;;;;;48.50;36.25;;;;;8.88;79.15;102873.66;5098476;27;45336;-60
2022/01/28 09:30:52;;;;;;;;;49.00;39.00;;;;;8.96;79.38;102872.81;5098634;27;45571;-61
2022/01/28 09:33:17;;;;;;;;;49.50;39.50;;;;;8.99;78.95;102868.44;5098768;27;46443;-64
2022/01/28 09:35:43;;;;;;;;;53.25;38.75;;;;;9.14;79.02;102877.25;5098575;27;45332;-57
2022/01/28 09:38:09;;;;;;;;;47.00;36.50;;;;;9.21;77.76;102882.53;5097312;27;45347;-66
2022/01/28 09:40:35;;;;;;;;;45.75;34.25;;;;;9.25;77.03;102882.53;5098807;27;45539;-66
2022/01/28 09:43:03;;;;;;;;;45.50;35.00;;;;;9.26;76.60;102877.28;5097566;27;47055;-64
2022/01/28 09:45:28;;;;;;;;;42.50;32.25;;;;;9.23;76.14;102882.53;5099613;27;45281;-67
2022/01/28 09:47:56;;;;;;;;;45.75;36.50;;;;;9.23;76.36;102886.91;5103011;27;45654;-62
2022/01/28 09:50:23;;;;;;;;;47.25;35.75;;;;;9.24;76.13;102883.41;5083763;27;45218;-65
2022/01/28 09:52:51;;;;;;;;;41.75;35.00;;;;;9.24;76.16;102876.41;5086687;27;46358;-61
2022/01/28 09:55:17;;;;;;;;;46.75;34.75;;;;;9.27;76.12;102883.41;5082845;27;45388;-65
2022/01/28 09:57:45;;;;;;;;;40.75;35.00;;;;;9.39;76.02;102882.56;5078255;27;45307;-64
2022/01/28 10:00:13;;;;;;;;;47.75;37.25;;;;;9.47;75.75;102876.44;5077693;27;45304;-63
2022/01/28 10:02:52;;;;;;;;;40.50;33.75;;;;;9.53;74.98;102872.94;5077825;27;45402;-60
2022/01/28 10:05:32;;;;;;;;;43.25;36.25;;;;;9.50;74.34;102883.47;5078295;27;45458;-66
2022/01/28 10:08:09;;;;;;;;;46.75;37.00;;;;;9.49;74.55;102889.59;5077801;27;45354;-77
2022/01/28 10:10:46;;;;;;;;;41.00;34.00;;;;;9.45;74.51;102891.31;5079111;27;45251;-73
2022/01/28 10:13:17;;;;;;;;;46.00;33.25;;;;;9.41;74.25;102889.56;5080703;27;47089;-67
2022/01/28 10:16:16;;;;;;;;;35.50;32.00;;;;;9.38;74.33;102886.94;5106814;27;45739;-73
2022/01/28 10:18:49;;;;;;;;;42.00;32.00;;;;;9.33;74.31;102889.56;5063243;27;45317;-70
2022/01/28 10:21:19;;;;;;;;;39.75;31.75;;;;;9.31;74.33;102893.94;5097180;27;45391;-63
2022/01/28 10:24:24;;;;;;;;;46.25;35.00;;;;;9.32;74.54;102886.91;5097441;27;46053;-66
2022/01/28 10:27:06;;;;;;;;;42.50;33.50;;;;;9.35;74.95;102893.06;5027878;28;45495;-75
2022/01/28 10:29:43;;;;;;;;;41.75;33.00;;;;;9.46;75.09;102893.06;5033734;28;45386;-73
2022/01/28 10:32:13;;;;;;;;;39.25;33.00;;;;;9.49;74.54;102886.97;5074680;27;45397;-74
2022/01/28 10:34:50;;;;;;;;;42.75;35.00;;;;;9.59;74.19;102895.75;5096498;27;45541;-70
2022/01/28 10:37:19;;;;;;;;;46.00;32.50;;;;;9.64;73.59;102889.59;5096353;27;45391;-72
2022/01/28 10:39:48;;;;;;;;;45.00;33.00;;;;;9.71;73.61;102897.50;5096516;27;45523;-68
2022/01/28 10:42:17;;;;;;;;;39.50;31.50;;;;;9.70;73.29;102893.09;5097866;27;45344;-61
2022/01/28 10:44:58;;;;;;;;;42.50;35.00;;;;;9.74;73.03;102901.00;5089430;27;45503;-74
2022/01/28 10:47:30;;;;;;;;;42.25;34.50;;;;;9.69;72.44;102900.13;5111888;27;45531;-69
2022/01/28 10:49:56;;;;;;;;;45.50;36.00;;;;;9.74;72.67;102913.25;5119028;27;45349;-75
2022/01/28 10:52:32;;;;;;;;;33.50;30.00;;;;;9.71;72.57;102908.00;5117461;27;45587;-72
2022/01/28 10:54:57;;;;;;;;;51.00;40.00;;;;;9.67;72.95;102909.78;5104332;27;47012;-59
2022/01/28 10:57:23;;;;;;;;;42.75;33.00;;;;;9.73;72.70;102919.38;5096473;27;45485;-69
2022/01/28 10:59:49;;;;;;;;;38.25;29.75;;;;;9.72;72.48;102915.91;5095294;27;45496;-70
2022/01/28 11:02:14;;;;;;;;;42.00;30.75;;;;;9.74;72.08;102910.63;5084127;27;45424;-70
2022/01/28 11:04:42;;;;;;;;;39.50;32.25;;;;;9.74;71.94;102908.91;5096427;27;46290;-70
2022/01/28 11:07:08;;;;;;;;;42.00;35.25;;;;;9.83;72.09;102918.53;5082096;27;45817;-67
2022/01/28 11:09:33;;;;;;;;;35.25;28.25;;;;;9.89;70.84;102931.66;5091917;27;45538;-73
2022/01/28 11:12:00;;;;;;;;;30.25;27.25;;;;;9.90;70.91;102922.91;5099355;27;45196;-70
2022/01/28 11:14:26;;;;;;;;;38.00;31.00;;;;;10.01;70.81;102920.28;5096983;27;47231;-70
2022/01/28 11:16:52;;;;;;;;;46.00;32.75;;;;;10.07;70.58;102920.28;5096362;27;45458;-66
2022/01/28 11:19:20;;;;;;;;;38.25;30.25;;;;;10.15;70.07;102919.41;5097745;27;45421;-69
2022/01/28 11:22:13;;;;;;;;;34.75;30.50;;;;;10.18;71.03;102916.75;5097726;27;45339;-74
2022/01/28 11:25:06;;;;;;;;;41.00;34.25;;;;;10.29;70.05;102908.88;5100685;27;46979;-71
2022/01/28 11:27:35;;;;;;;;;32.75;26.75;;;;;10.35;69.73;102904.47;5116125;27;45543;-72
2022/01/28 11:30:22;;;;;;;;;36.00;31.00;;;;;10.46;69.36;102904.50;5117468;27;45407;-67
2022/01/28 11:33:01;;;;;;;;;40.25;31.25;;;;;10.44;69.21;102906.25;5115937;27;45399;-74
2022/01/28 11:35:33;;;;;;;;;44.75;32.00;;;;;10.47;69.76;102902.72;5115544;27;46299;-69
2022/01/28 11:38:04;;;;;;;;;41.50;32.00;;;;;10.53;69.43;102897.44;5116457;27;45366;-69
2022/01/28 11:40:54;;;;;;;;;33.50;29.75;;;;;10.62;68.99;102896.53;5115693;27;45419;-68
2022/01/28 11:43:34;;;;;;;;;37.50;29.00;;;;;10.63;68.26;102885.13;5116492;27;45485;-68
2022/01/28 11:46:08;;;;;;;;;35.50;28.75;;;;;10.63;68.63;102883.41;5116333;27;46186;-71
2022/01/28 11:48:51;;;;;;;;;28.25;23.50;;;;;10.62;68.43;102878.13;5117117;27;45419;-69
2022/01/28 11:51:33;;;;;;;;;33.75;25.75;;;;;10.57;68.97;102878.13;5117267;27;45455;-66
2022/01/28 11:54:04;;;;;;;;;35.75;29.75;;;;;10.55;68.65;102879.03;5117314;27;45392;-74
2022/01/28 11:56:30;;;;;;;;;29.25;27.25;;;;;10.51;68.64;102870.25;5116362;27;45403;-72
2022/01/28 11:59:02;;;;;;;;;34.50;30.00;;;;;10.48;68.82;102876.41;5116498;27;45322;-62
2022/01/28 12:01:39;;;;;;;;;35.75;31.50;;;;;10.44;69.13;102868.53;5095124;27;45567;-65
2022/01/28 12:04:27;;;;;;;;;44.00;34.75;;;;;10.52;69.17;102862.38;5093765;27;45725;-69
2022/01/28 12:06:58;;;;;;;;;31.75;28.00;;;;;10.60;69.25;102853.56;5096269;27;45565;-68
2022/01/28 12:09:25;;;;;;;;;37.25;32.25;;;;;10.63;68.63;102851.81;5097221;27;45429;-67
2022/01/28 12:11:51;;;;;;;;;34.75;27.50;;;;;10.60;67.92;102840.41;5095909;27;45376;-66
2022/01/28 12:14:17;;;;;;;;;34.50;31.25;;;;;10.51;68.64;102838.66;5099537;27;45654;-68
2022/01/28 12:16:46;;;;;;;;;32.00;26.50;;;;;10.42;68.64;102843.97;5098110;27;45699;-70
2022/01/28 12:19:16;;;;;;;;;43.00;31.25;;;;;10.40;68.61;102853.63;5100635;27;45360;-62
2022/01/28 12:22:04;;;;;;;;;41.00;31.50;;;;;10.33;69.00;102852.75;5100481;27;45180;-65
2022/01/28 12:24:31;;;;;;;;;38.50;30.75;;;;;10.30;69.05;102842.22;5103027;27;45735;-70
2022/01/28 12:27:01;;;;;;;;;39.50;30.25;;;;;10.28;69.22;102825.56;5097944;27;45428;-68
2022/01/28 12:29:35;;;;;;;;;36.00;28.50;;;;;10.29;68.98;102822.94;5098683;27;45335;-70
2022/01/28 12:32:02;;;;;;;;;33.00;29.50;;;;;10.37;68.46;102821.16;5098317;27;45389;-69
2022/01/28 12:34:27;;;;;;;;;38.75;29.00;;;;;10.36;68.66;102814.13;5098764;27;45388;-70
2022/01/28 12:36:57;;;;;;;;;32.75;29.25;;;;;10.34;68.29;102801.88;5096556;27;45493;-70
2022/01/28 12:39:50;;;;;;;;;34.00;29.00;;;;;10.26;68.23;102791.38;5092354;27;45424;-70
2022/01/28 12:42:23;;;;;;;;;35.75;28.00;;;;;10.38;68.23;102825.53;5083203;27;45506;-60
2022/01/28 12:44:56;;;;;;;;;32.50;26.75;;;;;10.37;68.25;102822.91;5090167;27;45578;-64
2022/01/28 12:47:23;;;;;;;;;35.00;29.00;;;;;10.36;68.04;102818.53;5099317;27;45486;-62
2022/01/28 12:49:56;;;;;;;;;26.25;22.50;;;;;10.40;68.34;102819.41;5099719;27;45295;-64
2022/01/28 12:52:23;;;;;;;;;32.00;25.75;;;;;10.37;67.46;102822.91;5119172;27;45288;-69